createdAt,value
2018-05-15T00:00:03.962Z,17.80
2018-05-15T00:02:32.182Z,17.80
2018-05-15T00:05:01.155Z,17.90
2018-05-15T00:07:29.404Z,17.90
2018-05-15T00:09:57.629Z,17.80
2018-05-15T00:12:26.608Z,17.80
2018-05-15T00:14:55.599Z,17.70
2018-05-15T00:17:24.595Z,17.70
2018-05-15T00:19:52.869Z,17.60
2018-05-15T00:22:21.104Z,17.70
2018-05-15T00:24:49.341Z,17.60
2018-05-15T00:27:17.571Z,17.60
2018-05-15T00:29:45.816Z,17.70
2018-05-15T00:32:14.077Z,17.70
2018-05-15T00:34:42.330Z,17.60
2018-05-15T00:37:11.312Z,17.50
2018-05-15T00:39:40.316Z,17.50
2018-05-15T00:42:09.296Z,17.60
2018-05-15T00:44:38.287Z,17.50
2018-05-15T00:47:07.285Z,17.60
2018-05-15T00:49:36.307Z,17.50
2018-05-15T00:52:04.529Z,17.50
2018-05-15T00:54:32.756Z,17.50
2018-05-15T00:57:00.978Z,17.50
2018-05-15T00:59:29.288Z,17.40
2018-05-15T01:01:58.277Z,17.40
2018-05-15T01:04:27.389Z,17.30
2018-05-15T01:06:55.605Z,17.30
2018-05-15T01:09:23.841Z,17.40
2018-05-15T01:11:52.292Z,17.40
2018-05-15T01:14:21.328Z,17.30
2018-05-15T01:16:49.561Z,17.30
2018-05-15T01:19:18.602Z,17.30
2018-05-15T01:21:46.828Z,17.20
2018-05-15T01:24:15.824Z,17.30
2018-05-15T01:26:44.792Z,17.30
2018-05-15T01:29:13.024Z,17.20
2018-05-15T01:31:41.251Z,17.20
2018-05-15T01:34:10.978Z,17.20
2018-05-15T01:36:39.968Z,17.10
2018-05-15T01:39:08.953Z,17.10
2018-05-15T01:41:37.167Z,17.10
2018-05-15T01:44:05.400Z,17.20
2018-05-15T01:46:33.609Z,17.20
2018-05-15T01:49:01.829Z,17.10
2018-05-15T01:51:30.037Z,17.10
2018-05-15T01:53:59.037Z,17.20
2018-05-15T01:56:28.012Z,17.10
2018-05-15T01:58:57.009Z,17.20
2018-05-15T02:01:25.987Z,17.10
2018-05-15T02:03:54.214Z,17.10
2018-05-15T02:06:22.468Z,17.20
2018-05-15T02:08:50.767Z,17.10
2018-05-15T02:11:18.967Z,17.10
2018-05-15T02:13:47.181Z,17.10
2018-05-15T02:16:16.179Z,17.10
2018-05-15T02:18:45.157Z,17.00
2018-05-15T02:21:13.377Z,17.00
2018-05-15T02:23:41.592Z,17.00
2018-05-15T02:26:09.819Z,17.00
2018-05-15T02:28:38.059Z,16.90
2018-05-15T02:31:07.035Z,16.90
2018-05-15T02:33:36.014Z,16.90
2018-05-15T02:36:04.345Z,16.90
2018-05-15T02:38:32.558Z,17.00
2018-05-15T02:41:00.787Z,16.90
2018-05-15T02:43:29.068Z,16.90
2018-05-15T02:45:57.336Z,17.00
2018-05-15T02:48:26.313Z,16.90
2018-05-15T02:50:55.341Z,16.80
2018-05-15T02:53:23.628Z,16.90
2018-05-15T02:55:51.869Z,16.80
2018-05-15T02:58:20.840Z,16.70
2018-05-15T03:00:49.065Z,16.80
2018-05-15T03:03:17.276Z,16.60
2018-05-15T03:05:45.494Z,16.60
2018-05-15T03:08:13.714Z,16.70
2018-05-15T03:10:42.045Z,16.60
2018-05-15T03:13:10.319Z,16.60
2018-05-15T03:15:38.540Z,16.60
2018-05-15T03:18:06.769Z,16.60
2018-05-15T03:20:35.041Z,16.50
2018-05-15T03:23:03.629Z,16.50
2018-05-15T03:25:31.901Z,16.50
2018-05-15T03:28:00.111Z,16.50
2018-05-15T03:30:28.332Z,16.50
2018-05-15T03:32:58.236Z,16.40
2018-05-15T03:35:26.463Z,16.40
2018-05-15T03:37:54.700Z,16.40
2018-05-15T03:40:23.697Z,16.30
2018-05-15T03:42:52.672Z,16.30
2018-05-15T03:45:20.917Z,16.30
2018-05-15T03:47:49.118Z,16.40
2018-05-15T03:50:17.418Z,16.40
2018-05-15T03:52:46.396Z,16.40
2018-05-15T03:55:15.401Z,16.50
2018-05-15T03:57:44.384Z,16.40
2018-05-15T04:00:25.126Z,16.40
2018-05-15T04:03:06.610Z,16.40
2018-05-15T04:05:46.657Z,16.40
2018-05-15T04:08:14.872Z,16.50
2018-05-15T04:10:43.863Z,16.50
2018-05-15T04:13:12.836Z,16.60
2018-05-15T04:15:41.081Z,16.60
2018-05-15T04:18:09.274Z,16.60
2018-05-15T04:20:37.599Z,16.60
2018-05-15T04:23:06.121Z,16.50
2018-05-15T04:25:34.333Z,16.40
2018-05-15T04:28:03.323Z,16.50
2018-05-15T04:30:31.570Z,16.50
2018-05-15T04:32:59.771Z,16.50
2018-05-15T04:35:28.748Z,16.60
2018-05-15T04:37:56.977Z,16.60
2018-05-15T04:40:25.189Z,16.60
2018-05-15T04:42:53.461Z,16.60
2018-05-15T04:45:21.685Z,16.60
2018-05-15T04:47:49.912Z,16.70
2018-05-15T04:50:18.138Z,16.80
2018-05-15T04:52:46.391Z,16.90
2018-05-15T04:55:14.590Z,16.90
2018-05-15T04:57:42.816Z,16.80
2018-05-15T05:00:11.426Z,16.90
2018-05-15T05:02:40.431Z,16.90
2018-05-15T05:05:08.709Z,16.90
2018-05-15T05:07:36.932Z,17.00
2018-05-15T05:10:05.314Z,17.10
2018-05-15T05:12:33.634Z,17.00
2018-05-15T05:15:01.905Z,16.90
2018-05-15T05:17:30.130Z,16.70
2018-05-15T05:19:58.340Z,16.80
2018-05-15T05:22:27.332Z,16.90
2018-05-15T05:24:56.312Z,16.70
2018-05-15T05:27:24.547Z,16.60
2018-05-15T05:29:52.816Z,16.70
2018-05-15T05:32:21.060Z,16.70
2018-05-15T05:34:50.064Z,16.90
2018-05-15T05:37:18.291Z,16.80
2018-05-15T05:39:46.501Z,16.90
2018-05-15T05:42:15.504Z,16.80
2018-05-15T05:44:43.712Z,16.80
2018-05-15T05:47:11.953Z,16.80
2018-05-15T05:49:40.173Z,16.80
2018-05-15T05:52:08.411Z,16.80
2018-05-15T05:54:36.623Z,16.90
2018-05-15T05:57:04.856Z,16.90
2018-05-15T05:59:33.076Z,17.00
2018-05-15T06:02:01.296Z,17.00
2018-05-15T06:04:29.576Z,16.90
2018-05-15T06:06:57.801Z,16.90
2018-05-15T06:09:26.025Z,17.00
2018-05-15T06:11:54.245Z,16.90
2018-05-15T06:14:22.536Z,16.90
2018-05-15T06:16:50.700Z,17.00
2018-05-15T06:19:18.924Z,17.00
2018-05-15T06:21:47.307Z,17.00
2018-05-15T06:24:15.531Z,17.00
2018-05-15T06:26:44.566Z,17.00
2018-05-15T06:29:12.800Z,17.00
2018-05-15T06:31:41.013Z,17.10
2018-05-15T06:34:09.252Z,17.10
2018-05-15T06:36:37.564Z,17.20
2018-05-15T06:39:05.841Z,17.30
2018-05-15T06:41:34.223Z,17.40
2018-05-15T06:44:02.453Z,17.50
2018-05-15T06:46:30.673Z,17.50
2018-05-15T06:48:58.896Z,17.60
2018-05-15T06:51:27.112Z,17.50
2018-05-15T06:53:55.338Z,17.50
2018-05-15T06:56:23.566Z,17.50
2018-05-15T06:58:51.796Z,17.60
2018-05-15T07:01:20.060Z,17.70
2018-05-15T07:03:48.252Z,17.60
2018-05-15T07:06:16.593Z,17.60
2018-05-15T07:08:44.841Z,17.60
2018-05-15T07:11:13.831Z,17.80
2018-05-15T07:13:42.823Z,17.90
2018-05-15T07:16:11.825Z,17.80
2018-05-15T07:18:40.056Z,17.80
2018-05-15T07:21:08.277Z,17.90
2018-05-15T07:23:36.510Z,18.10
2018-05-15T07:26:06.235Z,18.50
2018-05-15T07:28:35.295Z,18.60
2018-05-15T07:31:03.482Z,18.60
2018-05-15T07:33:31.705Z,18.50
2018-05-15T07:35:59.908Z,18.70
2018-05-15T07:38:28.141Z,18.80
2018-05-15T07:40:57.108Z,18.80
2018-05-15T07:43:26.847Z,18.90
2018-05-15T07:45:55.067Z,18.90
2018-05-15T07:48:23.327Z,19.30
2018-05-15T07:50:51.552Z,19.30
2018-05-15T07:53:20.528Z,19.30
2018-05-15T07:55:48.756Z,19.20
2018-05-15T07:58:16.976Z,19.30
2018-05-15T08:00:45.247Z,19.50
2018-05-15T08:03:13.493Z,19.60
2018-05-15T08:05:41.763Z,19.80
2018-05-15T08:08:09.961Z,19.80
2018-05-15T08:10:38.204Z,19.80
2018-05-15T08:13:06.516Z,19.80
2018-05-15T08:15:34.733Z,19.80
2018-05-15T08:18:02.953Z,19.80
2018-05-15T08:20:31.181Z,19.60
2018-05-15T08:23:00.196Z,19.80
2018-05-15T08:25:28.468Z,19.80
2018-05-15T08:27:56.697Z,19.90
2018-05-15T08:30:24.915Z,20.00
2018-05-15T08:32:53.192Z,20.00
2018-05-15T08:35:21.420Z,19.80
2018-05-15T08:37:49.641Z,19.80
2018-05-15T08:40:17.925Z,19.90
2018-05-15T08:42:46.136Z,20.00
2018-05-15T08:45:14.379Z,20.00
2018-05-15T08:47:42.622Z,19.90
2018-05-15T08:50:10.978Z,20.00
2018-05-15T08:52:39.193Z,20.00
2018-05-15T08:55:07.469Z,19.90
2018-05-15T08:57:35.684Z,19.80
2018-05-15T09:00:04.289Z,19.80
2018-05-15T09:02:32.495Z,19.80
2018-05-15T09:05:00.718Z,20.00
2018-05-15T09:07:28.934Z,20.20
2018-05-15T09:09:57.927Z,20.40
2018-05-15T09:12:26.952Z,20.50
2018-05-15T09:14:55.214Z,20.50
2018-05-15T09:17:23.467Z,20.70
2018-05-15T09:19:52.435Z,20.90
2018-05-15T09:22:20.663Z,20.90
2018-05-15T09:24:48.860Z,21.10
2018-05-15T09:27:17.101Z,20.90
2018-05-15T09:29:45.309Z,21.00
2018-05-15T09:32:13.562Z,21.20
2018-05-15T09:34:41.839Z,21.00
2018-05-15T09:37:10.059Z,21.00
2018-05-15T09:39:38.277Z,21.20
2018-05-15T09:42:06.511Z,21.20
2018-05-15T09:44:34.740Z,21.40
2018-05-15T09:47:03.169Z,21.60
2018-05-15T09:49:31.453Z,21.70
2018-05-15T09:52:00.432Z,21.20
2018-05-15T09:54:28.673Z,21.20
2018-05-15T09:56:56.893Z,21.30
2018-05-15T09:59:25.922Z,21.60
2018-05-15T10:01:54.152Z,21.60
2018-05-15T10:04:22.458Z,21.60
2018-05-15T10:06:50.740Z,21.30
2018-05-15T10:09:18.963Z,20.80
2018-05-15T10:11:47.414Z,20.80
2018-05-15T10:14:15.851Z,20.90
2018-05-15T10:16:44.018Z,21.10
2018-05-15T10:19:12.243Z,21.30
2018-05-15T10:21:40.548Z,21.50
2018-05-15T10:24:08.787Z,21.10
2018-05-15T10:26:37.004Z,21.60
2018-05-15T10:29:05.263Z,21.80
2018-05-15T10:31:33.471Z,21.70
2018-05-15T10:34:01.771Z,21.90
2018-05-15T10:36:30.011Z,21.90
2018-05-15T10:38:58.234Z,21.80
2018-05-15T10:41:26.436Z,21.70
2018-05-15T10:43:54.685Z,21.90
2018-05-15T10:46:22.947Z,21.90
2018-05-15T10:48:51.173Z,22.00
2018-05-15T10:51:19.385Z,22.00
2018-05-15T10:53:48.392Z,22.10
2018-05-15T10:56:17.359Z,22.20
2018-05-15T10:58:46.781Z,22.10
2018-05-15T11:01:14.994Z,22.10
2018-05-15T11:03:43.232Z,22.00
2018-05-15T11:06:12.236Z,22.00
2018-05-15T11:08:40.454Z,22.00
2018-05-15T11:11:08.664Z,22.00
2018-05-15T11:13:37.649Z,22.10
2018-05-15T11:16:06.629Z,22.10
2018-05-15T11:18:42.310Z,22.10
2018-05-15T11:21:23.434Z,22.10
2018-05-15T11:26:59.154Z,22.10
2018-05-15T11:29:27.441Z,22.00
2018-05-15T11:31:55.641Z,22.00
2018-05-15T11:34:23.871Z,22.10
2018-05-15T11:36:52.882Z,22.20
2018-05-15T11:39:21.172Z,22.20
2018-05-15T11:41:49.431Z,22.20
2018-05-15T11:44:17.731Z,22.20
2018-05-15T11:46:46.761Z,22.00
2018-05-15T11:49:15.795Z,21.90
2018-05-15T11:51:43.986Z,21.80
2018-05-15T11:54:11.600Z,21.80
2018-05-15T11:56:39.827Z,21.90
2018-05-15T11:59:08.077Z,22.10
2018-05-15T12:01:36.281Z,22.20
2018-05-15T12:04:04.560Z,22.30
2018-05-15T12:06:33.524Z,22.40
2018-05-15T12:09:02.365Z,22.40
2018-05-15T12:11:30.504Z,22.40
2018-05-15T12:13:58.772Z,22.40
2018-05-15T12:16:26.983Z,22.20
2018-05-15T12:18:55.200Z,22.20
2018-05-15T12:21:23.472Z,22.10
2018-05-15T12:23:51.752Z,22.10
2018-05-15T12:26:19.994Z,22.20
2018-05-15T12:28:48.238Z,22.20
2018-05-15T12:31:16.441Z,22.30
2018-05-15T12:33:44.644Z,22.40
2018-05-15T12:36:12.853Z,22.50
2018-05-15T12:38:41.076Z,22.50
2018-05-15T12:41:10.114Z,22.70
2018-05-15T12:43:38.360Z,22.60
2018-05-15T12:46:06.572Z,22.60
2018-05-15T12:48:34.816Z,22.70
2018-05-15T12:51:03.761Z,22.80
2018-05-15T12:53:31.984Z,22.80
2018-05-15T12:56:00.275Z,22.70
2018-05-15T12:58:28.504Z,22.50
2018-05-15T13:00:56.733Z,22.50
2018-05-15T13:03:24.948Z,22.60
2018-05-15T13:05:53.156Z,22.70
2018-05-15T13:08:21.445Z,22.60
2018-05-15T13:10:49.674Z,22.60
2018-05-15T13:13:17.876Z,22.80
2018-05-15T13:15:46.097Z,22.80
2018-05-15T13:18:14.303Z,23.00
2018-05-15T13:20:42.587Z,23.10
2018-05-15T13:23:11.851Z,23.00
2018-05-15T13:25:40.084Z,23.00
2018-05-15T13:28:08.345Z,22.90
2018-05-15T13:30:36.604Z,22.90
2018-05-15T13:33:05.575Z,22.90
2018-05-15T13:35:33.808Z,22.90
2018-05-15T13:38:02.023Z,23.00
2018-05-15T13:40:30.264Z,23.00
2018-05-15T13:42:58.473Z,23.00
2018-05-15T13:45:26.781Z,23.00
2018-05-15T13:47:55.772Z,22.80
2018-05-15T13:50:24.747Z,22.70
2018-05-15T13:52:52.952Z,22.70
2018-05-15T13:55:21.184Z,22.60
2018-05-15T13:57:49.396Z,22.60
2018-05-15T14:00:17.608Z,22.70
2018-05-15T14:02:45.808Z,22.80
2018-05-15T14:05:14.045Z,22.80
2018-05-15T14:07:42.260Z,22.80
2018-05-15T14:10:10.794Z,22.90
2018-05-15T14:12:39.041Z,22.90
2018-05-15T14:15:08.023Z,23.10
2018-05-15T14:17:37.025Z,23.10
2018-05-15T14:20:06.241Z,23.10
2018-05-15T14:22:34.459Z,23.00
2018-05-15T14:25:02.692Z,23.00
2018-05-15T14:27:30.894Z,23.20
2018-05-15T14:29:59.144Z,23.20
2018-05-15T14:32:27.344Z,23.20
2018-05-15T14:34:55.611Z,23.30
2018-05-15T14:37:23.842Z,23.50
2018-05-15T14:39:52.846Z,23.50
2018-05-15T14:42:32.820Z,23.50
2018-05-15T14:45:01.031Z,23.40
2018-05-15T14:47:29.369Z,23.50
2018-05-15T14:49:57.593Z,23.60
2018-05-15T14:52:25.805Z,24.60
2018-05-15T14:54:54.017Z,25.90
2018-05-15T14:57:22.308Z,26.20
2018-05-15T14:59:51.229Z,27.00
2018-05-15T15:02:20.253Z,27.80
2018-05-15T15:04:48.481Z,27.70
2018-05-15T15:07:17.457Z,28.00
2018-05-15T15:09:45.721Z,28.00
2018-05-15T15:12:13.965Z,29.80
2018-05-15T15:14:42.170Z,31.80
2018-05-15T15:17:10.412Z,31.00
2018-05-15T15:19:38.609Z,29.20
2018-05-15T15:22:06.853Z,27.90
2018-05-15T15:24:35.128Z,27.60
2018-05-15T15:27:03.364Z,27.20
2018-05-15T15:29:31.636Z,25.90
2018-05-15T15:31:59.903Z,25.40
2018-05-15T15:34:28.884Z,25.70
2018-05-15T15:36:57.108Z,25.70
2018-05-15T15:39:25.401Z,25.10
2018-05-15T15:41:53.617Z,24.80
2018-05-15T15:44:21.855Z,24.80
2018-05-15T15:46:50.097Z,24.80
2018-05-15T15:49:18.345Z,24.80
2018-05-15T15:51:46.949Z,24.30
2018-05-15T15:54:15.918Z,24.00
2018-05-15T15:56:44.156Z,23.90
2018-05-15T15:59:12.396Z,23.80
2018-05-15T16:01:40.601Z,23.80
2018-05-15T16:04:08.987Z,23.90
2018-05-15T16:06:37.146Z,24.00
2018-05-15T16:09:05.372Z,23.90
2018-05-15T16:11:33.815Z,24.00
2018-05-15T16:14:01.845Z,23.90
2018-05-15T16:16:30.851Z,23.90
2018-05-15T16:18:59.124Z,23.90
2018-05-15T16:21:27.371Z,23.90
2018-05-15T16:23:55.837Z,24.00
2018-05-15T16:26:24.032Z,23.80
2018-05-15T16:28:52.234Z,23.70
2018-05-15T16:31:20.467Z,23.70
2018-05-15T16:33:48.799Z,23.70
2018-05-15T16:36:17.769Z,23.40
2018-05-15T16:38:46.810Z,23.40
2018-05-15T16:41:15.013Z,23.30
2018-05-15T16:43:43.270Z,23.30
2018-05-15T16:46:11.545Z,23.30
2018-05-15T16:48:39.777Z,23.10
2018-05-15T16:51:08.007Z,23.10
2018-05-15T16:53:36.235Z,23.10
2018-05-15T16:56:04.527Z,23.10
2018-05-15T16:58:32.751Z,23.00
2018-05-15T17:01:01.718Z,23.10
2018-05-15T17:03:30.028Z,23.10
2018-05-15T17:05:58.302Z,23.00
2018-05-15T17:08:27.289Z,22.80
2018-05-15T17:10:56.301Z,22.80
2018-05-15T17:13:24.586Z,22.80
2018-05-15T17:15:52.750Z,22.70
2018-05-15T17:18:20.976Z,22.60
2018-05-15T17:20:49.229Z,22.50
2018-05-15T17:23:17.495Z,22.40
2018-05-15T17:25:45.721Z,22.40
2018-05-15T17:28:14.731Z,22.40
2018-05-15T17:30:43.803Z,22.40
2018-05-15T17:33:12.030Z,22.40
2018-05-15T17:38:14.815Z,22.30
2018-05-15T17:40:43.020Z,22.30
2018-05-15T17:43:11.615Z,22.20
2018-05-15T17:45:39.821Z,22.20
2018-05-15T17:48:08.988Z,22.20
2018-05-15T17:50:37.372Z,22.20
2018-05-15T17:53:05.604Z,22.20
2018-05-15T17:55:33.788Z,22.20
2018-05-15T17:58:02.052Z,22.20
2018-05-15T18:00:30.304Z,22.00
2018-05-15T18:02:58.600Z,22.00
2018-05-15T18:05:27.591Z,21.90
2018-05-15T18:07:57.024Z,22.00
2018-05-15T18:10:25.330Z,22.00
2018-05-15T18:12:54.064Z,21.90
2018-05-15T18:15:22.629Z,21.80
2018-05-15T18:17:51.017Z,21.70
2018-05-15T18:20:19.213Z,21.70
2018-05-15T18:22:47.455Z,21.70
2018-05-15T18:25:16.677Z,21.60
2018-05-15T18:27:45.476Z,21.50
2018-05-15T18:30:14.297Z,21.60
2018-05-15T18:32:42.996Z,21.30
2018-05-15T18:35:15.528Z,21.10
2018-05-15T18:37:44.048Z,21.10
2018-05-15T18:40:13.805Z,21.00
2018-05-15T18:42:42.513Z,21.00
2018-05-15T18:45:10.981Z,21.00
2018-05-15T18:47:39.606Z,20.90
2018-05-15T18:50:09.497Z,20.80
2018-05-15T18:52:37.845Z,20.80
2018-05-15T18:55:06.201Z,20.80
2018-05-15T18:57:34.653Z,20.70
2018-05-15T19:00:03.890Z,20.70
2018-05-15T19:02:33.228Z,20.40
2018-05-15T19:05:01.476Z,20.40
2018-05-15T19:07:29.712Z,20.50
2018-05-15T19:09:58.737Z,20.40
2018-05-15T19:12:26.963Z,20.40
2018-05-15T19:14:56.268Z,20.40
2018-05-15T19:17:24.522Z,20.40
2018-05-15T19:19:53.013Z,20.20
2018-05-15T19:22:21.231Z,20.20
2018-05-15T19:24:49.485Z,20.10
2018-05-15T19:27:18.588Z,20.00
2018-05-15T19:29:46.896Z,20.00
2018-05-15T19:32:17.040Z,20.00
2018-05-15T19:34:51.387Z,19.90
2018-05-15T19:37:19.693Z,19.90
2018-05-15T19:39:48.218Z,20.00
2018-05-15T19:42:16.799Z,19.90
2018-05-15T19:44:45.061Z,19.90
2018-05-15T19:47:13.236Z,20.00
2018-05-15T19:49:41.501Z,20.00
2018-05-15T19:52:09.713Z,19.90
2018-05-15T19:54:38.012Z,19.80
2018-05-15T19:57:06.225Z,19.80
2018-05-15T19:59:34.481Z,19.80
2018-05-15T20:02:02.700Z,19.80
2018-05-15T20:04:30.937Z,19.90
2018-05-15T20:06:59.202Z,19.80
2018-05-15T20:09:27.429Z,19.70
2018-05-15T20:11:55.641Z,19.80
2018-05-15T20:14:23.871Z,19.60
2018-05-15T20:16:52.081Z,19.70
2018-05-15T20:19:21.076Z,19.70
2018-05-15T20:21:49.489Z,19.60
2018-05-15T20:24:17.752Z,19.60
2018-05-15T20:26:46.009Z,19.50
2018-05-15T20:29:14.239Z,19.60
2018-05-15T20:31:42.441Z,19.50
2018-05-15T20:34:11.408Z,19.50
2018-05-15T20:36:39.643Z,19.50
2018-05-15T20:39:07.860Z,19.50
2018-05-15T20:41:36.077Z,19.50
2018-05-15T20:44:04.297Z,19.50
2018-05-15T20:46:32.522Z,19.50
2018-05-15T20:49:00.803Z,19.30
2018-05-15T20:51:29.020Z,19.30
2018-05-15T20:53:57.247Z,19.20
2018-05-15T20:56:26.240Z,19.40
2018-05-15T20:58:54.514Z,19.40
2018-05-15T21:01:22.749Z,19.40
2018-05-15T21:03:50.968Z,19.40
2018-05-15T21:06:19.211Z,19.30
2018-05-15T21:08:47.419Z,18.80
2018-05-15T21:11:15.653Z,18.80
2018-05-15T21:13:43.857Z,18.70
2018-05-15T21:16:12.167Z,18.60
2018-05-15T21:18:40.408Z,18.60
2018-05-15T21:21:09.397Z,18.50
2018-05-15T21:23:38.375Z,18.60
2018-05-15T21:26:07.357Z,18.80
2018-05-15T21:28:35.661Z,18.80
2018-05-15T21:31:04.762Z,18.90
2018-05-15T21:33:33.038Z,18.90
2018-05-15T21:36:01.551Z,18.80
2018-05-15T21:38:29.921Z,18.80
2018-05-15T21:40:58.271Z,18.80
2018-05-15T21:43:26.477Z,19.00
2018-05-15T21:45:54.700Z,19.00
2018-05-15T21:48:23.680Z,18.90
2018-05-15T21:50:51.986Z,18.90
2018-05-15T21:53:21.086Z,18.80
2018-05-15T21:55:49.332Z,18.80
2018-05-15T21:58:17.544Z,18.80
2018-05-15T22:00:45.772Z,18.80
2018-05-15T22:03:15.071Z,18.70
2018-05-15T22:05:43.279Z,18.60
2018-05-15T22:08:11.493Z,18.50
2018-05-15T22:10:39.933Z,18.40
2018-05-15T22:13:20.013Z,18.30
2018-05-15T22:16:00.004Z,18.30
2018-05-15T22:18:39.989Z,18.30
2018-05-15T22:21:20.316Z,18.30
2018-05-15T22:23:48.045Z,18.20
2018-05-15T22:26:16.368Z,18.20
2018-05-15T22:28:45.385Z,18.30
2018-05-15T22:31:13.627Z,18.30
2018-05-15T22:33:41.830Z,18.20
2018-05-15T22:36:10.058Z,18.20
2018-05-15T22:38:38.384Z,18.20
2018-05-15T22:41:06.616Z,18.20
2018-05-15T22:43:34.824Z,18.20
2018-05-15T22:46:03.064Z,18.30
2018-05-15T22:48:31.338Z,18.10
2018-05-15T22:50:59.568Z,18.30
2018-05-15T22:53:28.620Z,18.20
2018-05-15T22:55:56.833Z,18.20
2018-05-15T22:58:25.052Z,18.20
2018-05-15T23:00:53.266Z,18.20
2018-05-15T23:03:22.448Z,18.30
2018-05-15T23:05:50.657Z,18.20
2018-05-15T23:08:18.893Z,18.30
2018-05-15T23:10:47.913Z,18.20
2018-05-15T23:13:16.134Z,18.20
2018-05-15T23:15:44.387Z,18.00
2018-05-15T23:18:12.645Z,18.00
2018-05-15T23:20:40.895Z,17.90
2018-05-15T23:23:10.200Z,17.80
2018-05-15T23:25:39.169Z,17.80
2018-05-15T23:28:08.900Z,17.80
2018-05-15T23:30:37.184Z,17.80
2018-05-15T23:33:05.454Z,17.70
2018-05-15T23:35:34.443Z,17.70
2018-05-15T23:38:03.432Z,17.70
2018-05-15T23:40:32.437Z,17.70
2018-05-15T23:43:00.680Z,17.70
2018-05-15T23:45:28.925Z,17.60
2018-05-15T23:47:57.172Z,17.50
2018-05-15T23:50:25.402Z,17.40
2018-05-15T23:52:53.705Z,17.40
2018-05-15T23:55:22.680Z,17.50
2018-05-15T23:57:50.892Z,17.50
